createdAt,value
2022-11-12T00:00:59.212Z,8.70
2022-11-12T00:03:26.511Z,8.70
2022-11-12T00:05:53.745Z,8.70
2022-11-12T00:08:20.845Z,8.70
2022-11-12T00:10:48.305Z,8.70
2022-11-12T00:13:15.524Z,8.70
2022-11-12T00:15:42.795Z,8.70
2022-11-12T00:18:10.066Z,8.70
2022-11-12T00:20:37.283Z,8.80
2022-11-12T00:23:04.740Z,8.70
2022-11-12T00:25:31.837Z,8.70
2022-11-12T00:28:06.205Z,8.80
2022-11-12T00:30:34.031Z,8.70
2022-11-12T00:33:05.050Z,8.70
2022-11-12T00:35:32.897Z,8.70
2022-11-12T00:38:00.706Z,8.70
2022-11-12T00:40:28.479Z,8.70
2022-11-12T00:42:55.476Z,8.70
2022-11-12T00:45:22.491Z,8.70
2022-11-12T00:47:49.333Z,8.60
2022-11-12T00:50:16.560Z,8.50
2022-11-12T00:52:43.925Z,8.50
2022-11-12T00:55:11.174Z,8.40
2022-11-12T00:57:38.242Z,8.40
2022-11-12T01:00:07.603Z,8.60
2022-11-12T01:02:42.394Z,8.50
2022-11-12T01:05:10.371Z,8.50
2022-11-12T01:07:37.200Z,8.50
2022-11-12T01:10:04.428Z,8.40
2022-11-12T01:12:32.160Z,8.40
2022-11-12T01:14:59.014Z,8.40
2022-11-12T01:17:25.812Z,8.40
2022-11-12T01:19:52.598Z,8.40
2022-11-12T01:22:19.506Z,8.30
2022-11-12T01:24:46.301Z,8.40
2022-11-12T01:27:13.131Z,8.40
2022-11-12T01:29:40.992Z,8.30
2022-11-12T01:32:08.208Z,8.20
2022-11-12T01:34:35.194Z,8.20
2022-11-12T01:37:02.367Z,8.20
2022-11-12T01:39:29.132Z,8.20
2022-11-12T01:41:55.910Z,8.30
2022-11-12T01:44:29.204Z,8.30
2022-11-12T01:47:12.218Z,8.40
2022-11-12T01:49:53.404Z,8.50
2022-11-12T01:52:28.649Z,8.50
2022-11-12T01:54:59.171Z,8.40
2022-11-12T01:57:41.568Z,8.30
2022-11-12T02:00:11.403Z,8.20
2022-11-12T02:02:39.498Z,8.30
2022-11-12T02:05:11.780Z,8.40
2022-11-12T02:07:40.429Z,8.50
2022-11-12T02:10:09.072Z,8.50
2022-11-12T02:12:54.855Z,8.50
2022-11-12T02:15:22.015Z,8.40
2022-11-12T02:17:49.299Z,8.40
2022-11-12T02:20:16.107Z,8.50
2022-11-12T02:22:43.254Z,8.50
2022-11-12T02:25:14.254Z,8.50
2022-11-12T02:27:41.058Z,8.50
2022-11-12T02:30:08.643Z,8.50
2022-11-12T02:32:35.812Z,8.50
2022-11-12T02:35:03.556Z,8.60
2022-11-12T02:37:30.721Z,8.70
2022-11-12T02:39:57.510Z,8.70
2022-11-12T02:42:24.239Z,8.70
2022-11-12T02:44:51.583Z,8.70
2022-11-12T02:47:18.417Z,8.80
2022-11-12T02:49:45.227Z,8.90
2022-11-12T02:52:12.063Z,9.10
2022-11-12T02:54:38.945Z,9.00
2022-11-12T02:57:07.024Z,9.00
2022-11-12T02:59:33.782Z,9.10
2022-11-12T03:02:00.578Z,9.10
2022-11-12T03:04:27.727Z,9.00
2022-11-12T03:06:54.971Z,8.90
2022-11-12T03:09:21.778Z,8.80
2022-11-12T03:11:49.026Z,8.80
2022-11-12T03:14:16.207Z,8.90
2022-11-12T03:16:42.986Z,9.00
2022-11-12T03:19:10.146Z,9.00
2022-11-12T03:21:36.938Z,8.90
2022-11-12T03:24:03.819Z,8.90
2022-11-12T03:26:35.397Z,9.10
2022-11-12T03:29:02.919Z,9.10
2022-11-12T03:31:29.769Z,9.20
2022-11-12T03:33:56.547Z,9.30
2022-11-12T03:36:23.298Z,9.30
2022-11-12T03:38:50.100Z,9.20
2022-11-12T03:41:16.841Z,9.10
2022-11-12T03:43:43.548Z,9.10
2022-11-12T03:46:10.455Z,9.10
2022-11-12T03:48:38.012Z,9.10
2022-11-12T03:51:05.029Z,9.00
2022-11-12T03:53:31.896Z,9.00
2022-11-12T03:55:58.751Z,9.00
2022-11-12T03:58:26.321Z,9.00
2022-11-12T04:00:53.347Z,9.00
2022-11-12T04:03:20.173Z,9.00
2022-11-12T04:06:05.655Z,9.00
2022-11-12T04:08:39.070Z,9.10
2022-11-12T04:11:15.161Z,9.10
2022-11-12T04:13:45.579Z,9.10
2022-11-12T04:16:34.295Z,9.20
2022-11-12T04:19:20.684Z,9.20
2022-11-12T04:21:56.588Z,8.90
2022-11-12T04:24:54.035Z,8.70
2022-11-12T04:27:29.652Z,8.70
2022-11-12T04:30:15.795Z,8.60
2022-11-12T04:32:50.924Z,8.70
2022-11-12T04:35:19.218Z,8.80
2022-11-12T04:37:46.957Z,8.80
2022-11-12T04:40:34.761Z,8.80
2022-11-12T04:43:21.191Z,8.90
2022-11-12T04:45:51.234Z,8.90
2022-11-12T04:48:18.562Z,9.00
2022-11-12T04:50:49.770Z,9.00
2022-11-12T04:53:16.711Z,9.00
2022-11-12T04:55:43.534Z,9.20
2022-11-12T04:58:10.914Z,9.20
2022-11-12T05:00:38.114Z,9.30
2022-11-12T05:03:05.247Z,9.30
2022-11-12T05:05:34.102Z,9.40
2022-11-12T05:08:02.418Z,9.50
2022-11-12T05:10:30.700Z,9.50
2022-11-12T05:12:58.214Z,9.60
2022-11-12T05:15:25.241Z,9.60
2022-11-12T05:17:52.582Z,9.60
2022-11-12T05:20:19.430Z,9.60
2022-11-12T05:23:04.553Z,9.60
2022-11-12T05:25:33.342Z,9.60
2022-11-12T05:28:05.645Z,9.60
2022-11-12T05:30:34.027Z,9.60
2022-11-12T05:33:00.914Z,9.50
2022-11-12T05:35:28.075Z,9.40
2022-11-12T05:37:54.783Z,9.50
2022-11-12T05:40:21.568Z,9.40
2022-11-12T05:42:48.308Z,9.50
2022-11-12T05:45:15.544Z,9.60
2022-11-12T05:47:42.556Z,9.70
2022-11-12T05:50:10.675Z,9.70
2022-11-12T05:52:37.415Z,9.70
2022-11-12T05:55:04.381Z,9.70
2022-11-12T05:57:31.127Z,9.80
2022-11-12T05:59:57.890Z,9.70
2022-11-12T06:02:24.747Z,9.80
2022-11-12T06:04:51.550Z,9.80
2022-11-12T06:07:18.422Z,9.90
2022-11-12T06:09:45.603Z,9.90
2022-11-12T06:12:12.447Z,9.90
2022-11-12T06:14:39.573Z,9.80
2022-11-12T06:17:06.736Z,9.80
2022-11-12T06:19:33.489Z,9.70
2022-11-12T06:22:00.428Z,9.70
2022-11-12T06:24:34.692Z,9.80
2022-11-12T06:27:02.350Z,9.90
2022-11-12T06:29:30.233Z,10.00
2022-11-12T06:31:57.046Z,10.00
2022-11-12T06:34:23.856Z,10.10
2022-11-12T06:36:50.705Z,10.10
2022-11-12T06:39:17.834Z,10.10
2022-11-12T06:41:44.656Z,10.10
2022-11-12T06:44:11.661Z,10.20
2022-11-12T06:46:38.876Z,10.30
2022-11-12T06:49:06.150Z,10.30
2022-11-12T06:51:32.924Z,10.30
2022-11-12T06:53:59.715Z,10.40
2022-11-12T06:56:26.581Z,10.50
2022-11-12T06:58:54.002Z,10.50
2022-11-12T07:01:20.893Z,10.60
2022-11-12T07:03:51.986Z,10.70
2022-11-12T07:06:20.560Z,10.60
2022-11-12T07:08:49.660Z,10.60
2022-11-12T07:11:18.088Z,10.70
2022-11-12T07:13:46.882Z,10.80
2022-11-12T07:16:18.780Z,10.70
2022-11-12T07:18:50.008Z,10.60
2022-11-12T07:21:19.882Z,10.60
2022-11-12T07:23:47.634Z,10.80
2022-11-12T07:26:19.007Z,10.90
2022-11-12T07:28:46.215Z,10.90
2022-11-12T07:31:14.443Z,11.00
2022-11-12T07:33:41.644Z,11.00
2022-11-12T07:36:13.859Z,11.10
2022-11-12T07:38:41.979Z,11.10
2022-11-12T07:41:17.280Z,11.20
2022-11-12T07:43:46.563Z,11.20
2022-11-12T07:46:17.795Z,11.30
2022-11-12T07:48:46.280Z,11.30
2022-11-12T07:51:16.448Z,11.40
2022-11-12T07:53:44.224Z,11.60
2022-11-12T07:56:13.307Z,11.50
2022-11-12T07:58:40.667Z,11.50
2022-11-12T08:01:12.368Z,11.70
2022-11-12T08:03:39.615Z,11.70
2022-11-12T08:06:07.230Z,11.60
2022-11-12T08:08:34.015Z,11.60
2022-11-12T08:11:00.843Z,11.70
2022-11-12T08:13:27.633Z,11.80
2022-11-12T08:16:00.537Z,11.80
2022-11-12T08:18:28.138Z,11.80
2022-11-12T08:21:02.846Z,11.80
2022-11-12T08:23:30.422Z,11.70
2022-11-12T08:26:01.848Z,11.70
2022-11-12T08:28:29.893Z,11.80
2022-11-12T08:30:58.519Z,11.80
2022-11-12T08:33:25.709Z,11.80
2022-11-12T08:35:52.955Z,11.80
2022-11-12T08:38:20.105Z,11.70
2022-11-12T08:40:46.950Z,11.80
2022-11-12T08:43:13.912Z,11.90
2022-11-12T08:45:42.110Z,11.90
2022-11-12T08:48:14.453Z,12.10
2022-11-12T08:50:41.930Z,12.10
2022-11-12T08:53:13.175Z,12.20
2022-11-12T08:55:40.436Z,12.20
2022-11-12T08:58:07.658Z,12.30
2022-11-12T09:00:37.230Z,12.40
2022-11-12T09:03:06.620Z,12.40
2022-11-12T09:05:37.166Z,12.30
2022-11-12T09:08:16.327Z,12.30
2022-11-12T09:10:43.781Z,12.30
2022-11-12T09:13:11.014Z,12.40
2022-11-12T09:15:38.876Z,12.40
2022-11-12T09:18:08.507Z,12.40
2022-11-12T09:20:35.700Z,12.40
2022-11-12T09:23:08.109Z,12.40
2022-11-12T09:25:36.565Z,12.40
2022-11-12T09:28:13.816Z,12.60
2022-11-12T09:30:49.515Z,12.70
2022-11-12T09:33:18.276Z,12.60
2022-11-12T09:35:46.128Z,12.80
2022-11-12T09:38:15.302Z,13.00
2022-11-12T09:40:50.830Z,13.10
2022-11-12T09:43:23.500Z,13.10
2022-11-12T09:46:13.538Z,13.00
2022-11-12T09:48:44.753Z,13.00
2022-11-12T09:51:21.937Z,12.70
2022-11-12T09:53:55.155Z,12.50
2022-11-12T09:56:22.551Z,12.40
2022-11-12T09:58:50.041Z,12.40
2022-11-12T10:01:19.788Z,12.40
2022-11-12T10:03:54.595Z,12.70
2022-11-12T10:06:34.468Z,13.00
2022-11-12T10:09:08.464Z,13.10
2022-11-12T10:12:31.434Z,13.30
2022-11-12T10:15:21.248Z,13.40
2022-11-12T10:18:06.628Z,13.40
2022-11-12T10:21:02.952Z,13.70
2022-11-12T10:23:38.635Z,14.00
2022-11-12T10:26:15.920Z,14.20
2022-11-12T10:28:55.706Z,14.40
2022-11-12T10:31:22.619Z,14.50
2022-11-12T10:33:49.455Z,14.50
2022-11-12T10:36:22.930Z,14.50
2022-11-12T10:38:52.991Z,14.40
2022-11-12T10:41:30.880Z,14.30
2022-11-12T10:44:03.497Z,14.30
2022-11-12T10:46:35.528Z,14.30
2022-11-12T10:49:21.761Z,14.30
2022-11-12T10:51:56.900Z,14.50
2022-11-12T10:54:39.097Z,14.80
2022-11-12T10:57:26.586Z,15.00
2022-11-12T11:00:13.565Z,15.40
2022-11-12T11:02:50.640Z,16.70
2022-11-12T11:05:46.455Z,17.60
2022-11-12T11:08:13.278Z,18.40
2022-11-12T11:10:40.090Z,18.90
2022-11-12T11:13:36.652Z,20.20
2022-11-12T11:16:07.020Z,22.30
2022-11-12T11:18:40.703Z,24.40
2022-11-12T11:21:47.880Z,25.90
2022-11-12T11:24:54.136Z,27.30
2022-11-12T11:27:37.533Z,28.20
2022-11-12T11:30:20.907Z,29.20
2022-11-12T11:33:11.476Z,29.30
2022-11-12T11:35:54.414Z,30.00
2022-11-12T11:38:48.426Z,30.30
2022-11-12T11:41:30.367Z,30.30
2022-11-12T11:44:03.275Z,30.40
2022-11-12T11:46:33.149Z,30.40
2022-11-12T11:49:18.358Z,30.70
2022-11-12T11:51:54.619Z,31.20
2022-11-12T11:54:30.430Z,31.40
2022-11-12T11:57:00.216Z,31.80
2022-11-12T12:00:02.800Z,32.20
2022-11-12T12:02:32.804Z,31.90
2022-11-12T12:05:28.198Z,31.60
2022-11-12T12:07:54.936Z,31.60
2022-11-12T12:10:53.416Z,32.30
2022-11-12T12:13:42.162Z,32.80
2022-11-12T12:16:40.058Z,33.40
2022-11-12T12:19:32.089Z,33.50
2022-11-12T12:22:00.889Z,33.70
2022-11-12T12:24:32.430Z,33.60
2022-11-12T12:27:16.993Z,34.10
2022-11-12T12:29:50.803Z,34.70
2022-11-12T12:32:34.712Z,34.70
2022-11-12T12:35:29.629Z,34.50
2022-11-12T12:38:11.806Z,34.10
2022-11-12T12:40:50.118Z,34.00
2022-11-12T12:43:39.491Z,33.90
2022-11-12T12:46:07.046Z,33.90
2022-11-12T12:48:38.638Z,34.10
2022-11-12T12:51:05.543Z,34.10
2022-11-12T12:53:35.569Z,33.70
2022-11-12T12:56:27.038Z,34.00
2022-11-12T12:58:55.190Z,33.80
2022-11-12T13:01:22.450Z,33.60
2022-11-12T13:03:59.654Z,33.70
2022-11-12T13:06:30.884Z,33.70
2022-11-12T13:09:20.623Z,33.50
2022-11-12T13:12:04.871Z,33.40
2022-11-12T13:14:33.878Z,33.40
2022-11-12T13:17:06.722Z,33.10
2022-11-12T13:19:35.089Z,33.20
2022-11-12T13:22:17.546Z,33.40
2022-11-12T13:25:08.557Z,33.20
2022-11-12T13:27:44.572Z,33.10
2022-11-12T13:30:15.215Z,33.10
2022-11-12T13:32:48.100Z,32.90
2022-11-12T13:35:23.717Z,32.50
2022-11-12T13:38:08.644Z,33.00
2022-11-12T13:40:45.417Z,32.60
2022-11-12T13:43:17.427Z,32.00
2022-11-12T13:46:02.461Z,31.50
2022-11-12T13:48:31.758Z,31.50
2022-11-12T13:51:04.621Z,31.60
2022-11-12T13:53:32.876Z,31.40
2022-11-12T13:56:00.540Z,31.30
2022-11-12T13:58:29.457Z,31.40
2022-11-12T14:00:59.307Z,31.30
2022-11-12T14:03:31.544Z,31.20
2022-11-12T14:06:06.660Z,30.90
2022-11-12T14:08:55.772Z,30.60
2022-11-12T14:11:47.109Z,30.20
2022-11-12T14:14:50.285Z,30.10
2022-11-12T14:17:29.500Z,29.60
2022-11-12T14:20:15.011Z,28.60
2022-11-12T14:22:44.930Z,27.80
2022-11-12T14:25:22.103Z,26.40
2022-11-12T14:27:51.516Z,25.00
2022-11-12T14:30:21.930Z,24.50
2022-11-12T14:33:00.426Z,24.50
2022-11-12T14:35:29.350Z,24.60
2022-11-12T14:38:26.984Z,24.10
2022-11-12T14:41:03.783Z,23.20
2022-11-12T14:43:44.260Z,22.30
2022-11-12T14:46:22.982Z,21.60
2022-11-12T14:49:00.240Z,20.80
2022-11-12T14:51:31.211Z,20.10
2022-11-12T14:54:09.348Z,19.40
2022-11-12T14:56:48.757Z,18.80
2022-11-12T14:59:17.152Z,18.50
2022-11-12T15:02:55.254Z,18.10
2022-11-12T15:05:16.496Z,17.60
2022-11-12T15:07:54.766Z,17.10
2022-11-12T15:10:32.961Z,16.80
2022-11-12T15:13:27.466Z,16.50
2022-11-12T15:16:09.957Z,16.30
2022-11-12T15:18:39.967Z,16.00
2022-11-12T15:21:21.022Z,15.80
2022-11-12T15:23:49.420Z,15.60
2022-11-12T15:26:26.470Z,15.40
2022-11-12T15:29:44.774Z,15.20
2022-11-12T15:32:13.880Z,15.10
2022-11-12T15:34:41.100Z,14.90
2022-11-12T15:37:25.681Z,14.80
2022-11-12T15:39:57.512Z,14.60
2022-11-12T15:42:42.182Z,14.50
2022-11-12T15:45:18.009Z,14.50
2022-11-12T15:47:45.348Z,14.30
2022-11-12T15:50:23.044Z,14.20
2022-11-12T15:52:50.368Z,14.10
2022-11-12T15:55:19.902Z,13.90
2022-11-12T15:57:50.359Z,13.80
2022-11-12T16:00:20.508Z,13.80
2022-11-12T16:02:56.872Z,13.80
2022-11-12T16:05:23.811Z,13.80
2022-11-12T16:07:50.669Z,13.70
2022-11-12T16:10:19.338Z,13.80
2022-11-12T16:12:48.170Z,13.80
2022-11-12T16:15:20.812Z,13.90
2022-11-12T16:17:48.848Z,13.80
2022-11-12T16:20:18.715Z,13.80
2022-11-12T16:22:45.977Z,13.60
2022-11-12T16:25:13.248Z,13.50
2022-11-12T16:27:40.840Z,13.50
2022-11-12T16:30:18.499Z,13.50
2022-11-12T16:32:47.069Z,13.40
2022-11-12T16:35:14.462Z,13.60
2022-11-12T16:37:43.503Z,13.60
2022-11-12T16:40:15.909Z,13.60
2022-11-12T16:42:48.670Z,13.70
2022-11-12T16:45:17.949Z,13.70
2022-11-12T16:47:48.383Z,13.60
2022-11-12T16:50:19.448Z,13.60
2022-11-12T16:52:46.678Z,13.60
2022-11-12T16:55:14.207Z,13.60
2022-11-12T16:57:42.985Z,13.70
2022-11-12T17:00:18.417Z,13.70
2022-11-12T17:02:49.492Z,13.70
2022-11-12T17:05:25.079Z,13.70
2022-11-12T17:07:56.774Z,13.70
2022-11-12T17:10:24.144Z,13.70
2022-11-12T17:12:52.338Z,13.70
2022-11-12T17:15:19.801Z,13.70
2022-11-12T17:17:47.205Z,13.60
2022-11-12T17:20:14.208Z,13.70
2022-11-12T17:22:41.598Z,13.70
2022-11-12T17:25:09.377Z,13.60
2022-11-12T17:27:36.696Z,13.60
2022-11-12T17:30:04.482Z,13.50
2022-11-12T17:32:31.343Z,13.60
2022-11-12T17:34:58.216Z,13.60
2022-11-12T17:37:25.450Z,13.60
2022-11-12T17:39:52.360Z,13.50
2022-11-12T17:42:19.665Z,13.40
2022-11-12T17:44:46.567Z,13.40
2022-11-12T17:47:13.459Z,13.40
2022-11-12T17:49:40.433Z,13.40
2022-11-12T17:52:07.766Z,13.40
2022-11-12T17:54:35.404Z,13.40
2022-11-12T17:57:02.487Z,13.40
2022-11-12T17:59:29.470Z,13.40
2022-11-12T18:01:56.270Z,13.30
2022-11-12T18:04:24.044Z,13.20
2022-11-12T18:06:51.570Z,13.20
2022-11-12T18:09:18.492Z,13.10
2022-11-12T18:11:54.197Z,13.00
2022-11-12T18:14:23.158Z,13.10
2022-11-12T18:16:52.747Z,13.00
2022-11-12T18:19:19.679Z,12.90
2022-11-12T18:21:46.682Z,12.80
2022-11-12T18:24:16.763Z,12.70
2022-11-12T18:26:44.548Z,12.50
2022-11-12T18:29:12.649Z,12.50
2022-11-12T18:31:40.744Z,12.50
2022-11-12T18:34:13.614Z,12.50
2022-11-12T18:36:41.135Z,12.40
2022-11-12T18:39:08.596Z,12.50
2022-11-12T18:41:35.601Z,12.50
2022-11-12T18:44:05.434Z,12.40
2022-11-12T18:46:32.681Z,12.50
2022-11-12T18:48:59.622Z,12.50
2022-11-12T18:51:26.638Z,12.50
2022-11-12T18:53:53.762Z,12.50
2022-11-12T18:56:22.107Z,12.50
2022-11-12T18:58:49.572Z,12.60
2022-11-12T19:01:22.527Z,12.70
2022-11-12T19:03:56.217Z,12.70
2022-11-12T19:06:24.448Z,12.70
2022-11-12T19:08:51.935Z,12.70
2022-11-12T19:11:21.879Z,12.60
2022-11-12T19:13:52.792Z,12.50
2022-11-12T19:16:22.270Z,12.50
2022-11-12T19:18:50.696Z,12.40
2022-11-12T19:21:27.813Z,12.50
2022-11-12T19:24:00.807Z,12.60
2022-11-12T19:26:32.290Z,12.50
2022-11-12T19:28:59.821Z,12.50
2022-11-12T19:31:28.364Z,12.40
2022-11-12T19:33:55.750Z,12.40
2022-11-12T19:36:26.048Z,12.40
2022-11-12T19:39:02.573Z,12.50
2022-11-12T19:41:29.897Z,12.50
2022-11-12T19:43:56.784Z,12.40
2022-11-12T19:46:25.328Z,12.30
2022-11-12T19:48:52.438Z,12.30
2022-11-12T19:51:19.505Z,12.30
2022-11-12T19:53:46.585Z,12.30
2022-11-12T19:56:17.786Z,12.30
2022-11-12T19:58:48.381Z,12.40
2022-11-12T20:01:17.996Z,12.50
2022-11-12T20:03:45.630Z,12.50
2022-11-12T20:06:20.857Z,12.50
2022-11-12T20:08:48.015Z,12.50
2022-11-12T20:11:16.351Z,12.40
2022-11-12T20:13:43.549Z,12.40
2022-11-12T20:16:20.738Z,12.50
2022-11-12T20:18:55.855Z,12.50
2022-11-12T20:21:24.026Z,12.50
2022-11-12T20:23:51.021Z,12.50
2022-11-12T20:26:18.042Z,12.30
2022-11-12T20:28:46.061Z,12.30
2022-11-12T20:31:17.357Z,12.30
2022-11-12T20:33:44.766Z,12.30
2022-11-12T20:36:14.409Z,12.30
2022-11-12T20:38:43.856Z,12.30
2022-11-12T20:41:20.186Z,12.40
2022-11-12T20:44:01.021Z,12.40
2022-11-12T20:46:29.225Z,12.30
2022-11-12T20:48:57.289Z,12.30
2022-11-12T20:51:32.397Z,12.40
2022-11-12T20:54:00.844Z,12.50
2022-11-12T20:56:29.649Z,12.40
2022-11-12T20:58:57.235Z,12.50
2022-11-12T21:01:25.861Z,12.40
2022-11-12T21:03:53.071Z,12.40
2022-11-12T21:06:22.803Z,12.30
2022-11-12T21:08:50.211Z,12.40
2022-11-12T21:11:19.493Z,12.40
2022-11-12T21:13:46.860Z,12.40
2022-11-12T21:16:15.084Z,12.30
2022-11-12T21:18:42.812Z,12.20
2022-11-12T21:21:11.288Z,12.20
2022-11-12T21:23:40.899Z,12.10
2022-11-12T21:26:10.614Z,12.20
2022-11-12T21:28:38.485Z,12.30
2022-11-12T21:31:06.510Z,12.10
2022-11-12T21:33:33.747Z,12.20
2022-11-12T21:36:01.878Z,12.20
2022-11-12T21:38:29.481Z,12.30
2022-11-12T21:41:08.632Z,12.20
2022-11-12T21:43:37.261Z,12.30
2022-11-12T21:46:08.418Z,12.30
2022-11-12T21:48:35.893Z,12.30
2022-11-12T21:51:24.253Z,12.40
2022-11-12T21:53:59.550Z,12.40
2022-11-12T21:56:26.994Z,12.50
2022-11-12T21:58:59.422Z,12.50
2022-11-12T22:01:29.156Z,12.50
2022-11-12T22:03:57.019Z,12.50
2022-11-12T22:06:26.656Z,12.40
2022-11-12T22:08:56.225Z,12.50
2022-11-12T22:11:23.977Z,12.30
2022-11-12T22:13:50.933Z,12.30
2022-11-12T22:16:22.896Z,12.20
2022-11-12T22:18:52.763Z,12.20
2022-11-12T22:21:22.806Z,12.30
2022-11-12T22:23:50.033Z,12.20
2022-11-12T22:26:22.812Z,12.20
2022-11-12T22:28:50.025Z,12.20
2022-11-12T22:31:19.701Z,12.20
2022-11-12T22:33:46.779Z,12.20
2022-11-12T22:36:16.179Z,12.20
2022-11-12T22:38:45.147Z,12.20
2022-11-12T22:41:17.910Z,12.20
2022-11-12T22:43:53.609Z,12.20
2022-11-12T22:46:28.486Z,12.20
2022-11-12T22:48:56.027Z,12.20
2022-11-12T22:51:27.951Z,12.30
2022-11-12T22:53:59.938Z,12.20
2022-11-12T22:56:28.396Z,12.20
2022-11-12T22:58:55.909Z,12.10
2022-11-12T23:01:25.476Z,12.10
2022-11-12T23:03:54.924Z,12.10
2022-11-12T23:06:22.045Z,12.10
2022-11-12T23:08:49.280Z,12.10
2022-11-12T23:11:18.829Z,12.00
2022-11-12T23:13:47.001Z,12.10
2022-11-12T23:16:16.935Z,12.10
2022-11-12T23:18:44.342Z,12.00
2022-11-12T23:21:14.624Z,12.10
2022-11-12T23:23:41.903Z,12.10
2022-11-12T23:26:15.048Z,12.10
2022-11-12T23:28:42.041Z,12.10
2022-11-12T23:31:18.248Z,12.10
2022-11-12T23:33:49.665Z,12.10
2022-11-12T23:36:16.938Z,12.10
2022-11-12T23:38:44.320Z,12.10
2022-11-12T23:41:13.884Z,12.10
2022-11-12T23:43:40.784Z,12.20
2022-11-12T23:46:07.676Z,12.10
2022-11-12T23:48:34.432Z,12.10
2022-11-12T23:51:07.206Z,12.00
2022-11-12T23:53:35.447Z,11.90
2022-11-12T23:56:02.775Z,12.00
2022-11-12T23:58:30.196Z,12.10
